ROMMA est une association bénévole à but non lucratif. Votre soutien est indispensable : ADHERER à ROMMA ou FAIRE un DON

Granges-lès-Beaumont - (26, Drôme)

Drôme des Collines (155 m)   Longitude: 04°58'E   Latitude: 45°03'N Station partenaire n°123
 

Détail journalier du     <<     >>

Température Precipitation Humidité Pression Vent Dir Rafale Dir. rafale Ensol.
Heure (°C) (mm) (%) (hPa) (km/h) (km/h) (min)
01:00 12.10.287101105OSO0
02:00 11.60.28810114NNE10NE0
03:00 11.208910113N11N0
04:00 10.609010111N6N0
05:00 10.108910112N8N0
06:00 8.608910111N6N0
07:00 9.30.29110112N8N0
08:00 10.8091101205N0
09:00 11.5091101205N0
10:00 15.308210122N6N40
11:00 17.507010123N10NNE60
12:00 18.706110124OSO13S60
13:00 20.105410124SSE13S60
14:00 20.304610123ESE11ESE20
15:00 20.305110114ESE11E40
16:00 21.204510116ENE15ESE30
17:00 21.404910115SSO19S10
18:00 20.705310116SSE15SE40
19:00 20.905110117SSE21S30
20:00 20.505610117SSO16S30
21:00 17.506910123SSO10SSO0
22:00 15.207810122ESE10E0
23:00 15.207810131---11SSO0
minuit 15.607610142S10SSO0

Graphique du 10-05-2019

 

Serveur OMMA